Time;durP1;ratioP1;P1;durP2;ratioP2;P2;SDS_P1;SDS_P2;PMS_P1;PMS_P2;Temp;Humidity;BMP_temperature;BMP_pressure;BME280_temperature;BME280_humidity;BME280_pressure;Samples;Min_cycle;Max_cycle;Signal;HPM_P1;HPM_P2
2022/05/08 03:52:46;;;;;;;8.63;7.83;;;;;;;11.52;68.96;97187.91;6272057;22;20241;-79
2022/05/08 04:54:07;;;;;;;13.73;12.32;;;;;;;11.74;75.44;97217.66;6284992;22;19999;-81
2022/05/08 04:56:56;;;;;;;12.50;11.30;;;;;;;11.72;71.83;97212.63;6253179;22;20414;-77
2022/05/08 04:59:30;;;;;;;12.77;11.55;;;;;;;11.69;72.52;97217.38;6276913;22;20015;-77
2022/05/08 05:01:57;;;;;;;13.70;12.35;;;;;;;11.70;73.96;97219.84;6277364;22;20347;-77
2022/05/08 05:04:25;;;;;;;12.02;10.82;;;;;;;11.73;73.99;97221.28;6277469;22;20023;-78
2022/05/08 05:06:53;;;;;;;12.95;10.63;;;;;;;11.69;71.10;97220.00;6276380;22;20019;-77
2022/05/08 05:09:22;;;;;;;15.25;11.32;;;;;;;11.66;71.13;97225.56;6277129;22;20022;-77
2022/05/08 05:11:49;;;;;;;11.68;10.57;;;;;;;11.67;72.07;97227.19;6277290;22;20337;-76
2022/05/08 05:14:17;;;;;;;12.90;11.45;;;;;;;11.71;73.85;97228.47;6276796;22;20035;-77
2022/05/08 05:16:44;;;;;;;13.40;12.00;;;;;;;11.75;74.28;97229.75;6276189;22;20355;-76
2022/05/08 05:19:12;;;;;;;12.40;11.10;;;;;;;11.77;73.84;97227.78;6277250;22;20020;-77
2022/05/08 05:21:39;;;;;;;13.55;12.13;;;;;;;11.79;73.39;97231.03;6277052;22;20078;-77
2022/05/08 05:24:07;;;;;;;13.30;11.68;;;;;;;11.80;73.09;97232.66;6277288;22;20027;-77
2022/05/08 05:26:36;;;;;;;14.00;12.43;;;;;;;11.83;72.50;97231.50;6276160;22;20094;-77
2022/05/08 05:29:03;;;;;;;13.57;12.18;;;;;;;11.79;70.56;97236.28;6277373;22;20031;-77
2022/05/08 05:31:31;;;;;;;14.50;12.32;;;;;;;11.75;70.26;97232.38;6276952;22;20094;-77
2022/05/08 05:33:58;;;;;;;13.20;11.85;;;;;;;11.78;73.03;97237.25;6276646;22;20463;-77
2022/05/08 05:36:26;;;;;;;14.25;12.85;;;;;;;11.81;73.27;97236.91;6274751;22;20039;-77
2022/05/08 05:38:53;;;;;;;13.50;12.18;;;;;;;11.86;73.78;97236.38;6276986;22;20031;-77
2022/05/08 05:41:21;;;;;;;13.55;12.15;;;;;;;11.91;74.29;97245.34;6276676;22;20016;-77
2022/05/08 05:43:50;;;;;;;13.18;11.88;;;;;;;11.93;74.42;97238.16;6276532;22;20475;-76
2022/05/08 05:49:03;;;;;;;14.48;13.02;;;;;;;12.00;74.35;97243.50;6277160;22;20020;-77
2022/05/08 05:51:30;;;;;;;14.00;11.98;;;;;;;12.03;74.23;97243.16;6276527;22;20016;-78
2022/05/08 05:53:58;;;;;;;12.95;11.75;;;;;;;12.04;74.22;97242.16;6276852;22;20038;-77
2022/05/08 05:56:26;;;;;;;11.68;10.52;;;;;;;12.05;73.96;97243.00;6275324;22;20019;-78
2022/05/08 05:58:54;;;;;;;12.25;11.02;;;;;;;12.05;73.32;97243.00;6276884;22;20020;-76
2022/05/08 06:01:22;;;;;;;12.48;11.23;;;;;;;12.05;73.72;97246.41;6275360;22;20024;-77
2022/05/08 06:03:49;;;;;;;13.00;11.70;;;;;;;12.08;72.96;97245.25;6277702;22;20042;-78
2022/05/08 06:06:17;;;;;;;11.82;10.65;;;;;;;12.11;72.74;97244.88;6275517;22;20032;-78
2022/05/08 06:08:46;;;;;;;12.40;11.20;;;;;;;12.11;71.30;97240.50;6276703;22;20019;-79
2022/05/08 06:11:15;;;;;;;13.32;11.60;;;;;;;12.11;71.83;97243.09;6276685;22;20015;-79
2022/05/08 06:13:43;;;;;;;15.85;11.70;;;;;;;12.15;71.44;97248.78;6276717;22;20031;-78
2022/05/08 06:16:12;;;;;;;12.50;11.20;;;;;;;12.20;73.64;97250.88;6275316;22;20559;-79
2022/05/08 06:18:39;;;;;;;12.20;11.00;;;;;;;12.25;73.63;97249.38;6276616;22;20024;-79
2022/05/08 06:21:08;;;;;;;12.10;10.90;;;;;;;12.27;72.21;97250.00;6276092;22;20020;-79
2022/05/08 06:23:35;;;;;;;13.73;10.68;;;;;;;12.29;72.05;97253.25;6276554;22;20031;-79
2022/05/08 06:26:03;;;;;;;11.18;10.02;;;;;;;12.32;71.72;97258.13;6274955;22;20027;-79
2022/05/08 06:28:31;;;;;;;11.55;10.52;;;;;;;12.36;72.64;97256.78;6275943;22;20455;-79
2022/05/08 06:30:59;;;;;;;11.88;10.68;;;;;;;12.39;72.31;97258.22;6276919;22;20066;-80
2022/05/08 06:33:28;;;;;;;12.20;10.88;;;;;;;12.45;74.16;97261.97;6276435;22;20035;-78
2022/05/08 06:35:55;;;;;;;12.60;11.30;;;;;;;12.49;74.08;97258.00;6275372;22;20019;-78
2022/05/08 06:38:23;;;;;;;12.60;11.40;;;;;;;12.54;74.52;97255.66;6276509;22;20102;-78
2022/05/08 06:40:50;;;;;;;12.45;11.20;;;;;;;12.58;72.79;97264.78;6275824;22;20019;-78
2022/05/08 06:43:17;;;;;;;12.32;11.13;;;;;;;12.58;71.55;97259.53;6275791;22;20020;-78
2022/05/08 06:45:45;;;;;;;11.38;10.27;;;;;;;12.58;71.06;97260.34;6275826;22;20023;-78
2022/05/08 06:48:13;;;;;;;12.10;10.05;;;;;;;12.57;70.57;97258.72;6275699;22;20097;-78
2022/05/08 06:50:43;;;;;;;11.75;10.55;;;;;;;12.59;70.15;97263.78;6276240;22;20016;-78
2022/05/08 06:53:10;;;;;;;12.02;10.93;;;;;;;12.61;69.94;97258.38;6276201;22;20026;-78
2022/05/08 06:55:38;;;;;;;13.20;11.90;;;;;;;12.62;70.02;97263.44;6275486;22;20030;-78
2022/05/08 06:58:07;;;;;;;12.18;10.90;;;;;;;12.63;69.96;97270.28;6274986;22;20026;-80
2022/05/08 07:03:20;;;;;;;12.18;10.98;;;;;;;12.70;70.05;97271.22;6276259;22;20020;-79
2022/05/08 07:05:49;;;;;;;11.90;10.70;;;;;;;12.75;70.19;97270.69;6275181;22;20027;-78
2022/05/08 07:08:17;;;;;;;12.15;10.57;;;;;;;12.80;69.88;97264.91;6275921;22;20039;-78
2022/05/08 07:10:45;;;;;;;11.38;10.27;;;;;;;12.84;70.33;97261.75;6276184;22;20016;-77
2022/05/08 07:13:12;;;;;;;12.77;11.30;;;;;;;12.89;70.58;97266.44;6274729;22;20020;-78
2022/05/08 07:15:40;;;;;;;12.68;11.00;;;;;;;12.96;71.21;97268.13;6275723;22;20015;-79
2022/05/08 07:18:25;;;;;;;13.07;11.13;;;;;;;13.02;71.04;97271.84;6276533;22;20099;-78
2022/05/08 07:20:53;;;;;;;13.38;12.05;;;;;;;13.09;70.93;97275.38;6273115;22;20494;-78
2022/05/08 07:23:21;;;;;;;13.60;11.80;;;;;;;13.16;71.82;97276.28;6273853;22;20364;-78
2022/05/08 07:25:48;;;;;;;12.60;11.40;;;;;;;13.24;71.37;97261.47;6272032;22;20375;-78
2022/05/08 07:28:16;;;;;;;13.23;11.77;;;;;;;13.32;71.18;97269.25;6273870;22;20566;-78
2022/05/08 07:30:43;;;;;;;14.85;11.27;;;;;;;13.36;71.38;97268.72;6273554;22;20016;-79
2022/05/08 07:33:11;;;;;;;15.30;11.98;;;;;;;13.46;71.16;97272.84;6273952;22;20452;-78
2022/05/08 07:38:27;;;;;;;14.23;12.82;;;;;;;13.64;71.56;97272.44;6278404;22;20027;-78
2022/05/08 07:41:00;;;;;;;13.27;11.65;;;;;;;13.73;72.18;97276.59;6275872;22;20043;-78
2022/05/08 07:43:28;;;;;;;12.20;10.93;;;;;;;13.82;71.46;97278.13;6275847;22;20024;-78
2022/05/08 07:45:56;;;;;;;12.85;11.43;;;;;;;13.91;71.33;97279.63;6274957;22;20027;-79
2022/05/08 07:48:23;;;;;;;14.35;11.60;;;;;;;13.99;70.82;97276.88;6275583;22;20045;-79
2022/05/08 07:50:51;;;;;;;11.23;10.02;;;;;;;14.09;69.83;97281.81;6275292;22;20011;-78
2022/05/08 07:53:20;;;;;;;11.27;9.27;;;;;;;14.19;68.11;97279.69;6275856;22;20023;-78
2022/05/08 07:55:51;;;;;;;9.32;8.35;;;;;;;14.30;66.84;97281.00;6274360;22;20024;-78
2022/05/08 07:58:20;;;;;;;11.77;8.45;;;;;;;14.42;66.68;97284.72;6275639;22;20055;-78
2022/05/08 08:00:49;;;;;;;10.13;9.02;;;;;;;14.54;67.10;97284.22;6275523;22;20102;-78
2022/05/08 08:03:17;;;;;;;10.93;9.68;;;;;;;14.66;67.13;97295.88;6275858;22;20023;-79
2022/05/08 08:05:45;;;;;;;9.27;8.32;;;;;;;14.75;66.14;97288.66;6274932;22;20024;-77
2022/05/08 08:08:32;;;;;;;11.25;8.18;;;;;;;14.88;66.00;97290.56;6275095;22;20459;-78
2022/05/08 08:11:03;;;;;;;9.63;8.38;;;;;;;14.97;65.80;97292.84;6277074;22;20024;-79
2022/05/08 08:13:33;;;;;;;8.60;7.35;;;;;;;15.07;63.63;97291.72;6275604;22;20070;-78
2022/05/08 08:16:01;;;;;;;8.65;7.75;;;;;;;15.18;63.95;97296.41;6274013;22;20020;-78
2022/05/08 08:18:29;;;;;;;8.77;7.10;;;;;;;15.27;63.08;97303.13;6275498;22;20020;-79
2022/05/08 08:20:57;;;;;;;7.60;6.80;;;;;;;15.36;63.00;97309.03;6275278;22;20026;-78
2022/05/08 08:23:26;;;;;;;7.57;6.72;;;;;;;15.44;61.45;97295.75;6275367;22;20511;-78
2022/05/08 08:25:54;;;;;;;7.30;6.60;;;;;;;15.53;61.02;97299.81;6274236;22;20019;-79
2022/05/08 08:28:23;;;;;;;7.18;6.45;;;;;;;15.60;60.57;97298.03;6276260;22;20059;-79
2022/05/08 08:30:50;;;;;;;8.95;6.72;;;;;;;15.70;60.66;97302.09;6276064;22;20110;-79
2022/05/08 08:33:18;;;;;;;9.57;7.15;;;;;;;15.76;59.95;97298.72;6276721;22;20020;-79
2022/05/08 08:35:46;;;;;;;7.07;6.25;;;;;;;15.84;60.07;97295.91;6275108;22;20463;-79
2022/05/08 08:38:14;;;;;;;8.05;6.45;;;;;;;15.91;59.77;97307.25;6275355;22;20091;-76
2022/05/08 08:40:43;;;;;;;8.07;6.80;;;;;;;15.98;59.28;97305.47;6275643;22;20024;-76
2022/05/08 08:43:11;;;;;;;7.03;6.40;;;;;;;16.04;58.94;97302.03;6275522;22;20351;-76
2022/05/08 08:48:30;;;;;;;6.55;5.68;;;;;;;16.19;58.39;97293.16;6275556;22;20042;-78
2022/05/08 08:50:58;;;;;;;7.00;5.75;;;;;;;16.25;58.26;97302.91;6275410;22;20410;-79
2022/05/08 08:53:27;;;;;;;7.10;6.40;;;;;;;16.30;58.22;97304.94;6275297;22;20024;-79
2022/05/08 08:55:56;;;;;;;6.13;5.53;;;;;;;16.34;58.37;97301.69;6274046;22;20019;-78
2022/05/08 08:58:23;;;;;;;6.82;6.07;;;;;;;16.39;57.95;97301.88;6283458;22;20494;-79
2022/05/08 09:00:52;;;;;;;10.65;5.30;;;;;;;16.43;58.10;97300.47;6284742;22;20027;-79
2022/05/08 09:03:25;;;;;;;7.85;6.25;;;;;;;16.51;57.69;97306.53;6283282;22;20022;-76
2022/05/08 09:05:56;;;;;;;7.50;6.65;;;;;;;16.56;57.88;97318.13;6274756;22;20047;-76
2022/05/08 09:08:26;;;;;;;9.13;6.70;;;;;;;16.62;58.27;97313.88;6275395;22;20099;-76
2022/05/08 09:10:56;;;;;;;7.00;6.30;;;;;;;16.67;58.18;97308.78;6275316;22;20328;-77
2022/05/08 09:13:24;;;;;;;6.50;5.90;;;;;;;16.71;57.55;97311.84;6275409;22;20020;-76
2022/05/08 09:16:01;;;;;;;8.38;6.35;;;;;;;16.74;56.81;97312.22;6274046;22;20016;-77
2022/05/08 09:18:28;;;;;;;7.55;6.18;;;;;;;16.77;57.30;97322.38;6274969;22;20030;-76
2022/05/08 09:21:54;;;;;;;7.43;6.20;;;;;;;16.79;57.22;97320.34;6275416;22;20023;-75
2022/05/08 09:23:46;;;;;;;7.80;7.10;;;;;;;16.84;57.10;97315.31;6274683;22;20489;-76
2022/05/08 09:26:14;;;;;;;7.53;6.82;;;;;;;16.87;57.07;97319.34;6274318;22;20027;-76
2022/05/08 09:28:45;;;;;;;7.53;6.80;;;;;;;16.93;56.65;97328.28;6275305;22;20031;-79
2022/05/08 09:31:15;;;;;;;7.70;6.85;;;;;;;16.96;56.92;97314.69;6275006;22;20452;-79
2022/05/08 09:33:44;;;;;;;6.70;6.07;;;;;;;17.02;57.25;97324.41;6275266;22;20027;-79
2022/05/08 09:36:18;;;;;;;8.15;7.05;;;;;;;17.06;56.32;97320.34;6274148;22;20023;-79
2022/05/08 09:38:47;;;;;;;7.60;6.90;;;;;;;17.14;57.01;97321.94;6276403;22;20026;-79
2022/05/08 09:41:19;;;;;;;7.50;6.78;;;;;;;17.20;57.49;97319.28;6277089;22;20026;-79
2022/05/08 09:43:47;;;;;;;7.18;6.47;;;;;;;17.28;56.09;97320.91;6277051;22;20020;-79
2022/05/08 09:46:17;;;;;;;6.93;6.28;;;;;;;17.34;55.82;97321.91;6275449;22;20015;-76
2022/05/08 09:48:44;;;;;;;7.40;6.70;;;;;;;17.42;55.78;97324.31;6277369;22;20073;-77
2022/05/08 09:51:15;;;;;;;8.25;6.85;;;;;;;17.48;55.99;97320.88;6277189;22;20374;-76
2022/05/08 09:53:44;;;;;;;8.00;6.72;;;;;;;17.55;55.95;97318.19;6277097;22;20020;-77
2022/05/08 09:56:12;;;;;;;7.32;6.68;;;;;;;17.61;55.35;97312.91;6275440;22;20028;-77
2022/05/08 09:58:41;;;;;;;6.70;6.05;;;;;;;17.70;56.14;97318.75;6276965;22;20026;-77
2022/05/08 10:01:08;;;;;;;6.82;6.07;;;;;;;17.78;55.71;97317.72;6277092;22;20081;-77
2022/05/08 10:03:37;;;;;;;7.25;6.28;;;;;;;17.87;55.24;97312.00;6277305;22;20019;-77
2022/05/08 10:06:05;;;;;;;9.73;6.65;;;;;;;17.97;55.34;97316.81;6276094;22;20363;-77
2022/05/08 10:08:36;;;;;;;7.05;5.82;;;;;;;18.06;55.34;97318.22;6276685;22;20468;-77
2022/05/08 10:14:03;;;;;;;6.30;5.28;;;;;;;18.23;54.13;97315.06;6276613;22;20016;-77
2022/05/08 10:16:45;;;;;;;5.78;5.28;;;;;;;18.27;53.10;97316.25;6275600;22;20037;-76
2022/05/08 10:19:56;;;;;;;6.50;5.10;;;;;;;18.31;53.37;97310.31;6277040;22;20020;-77
2022/05/08 10:22:45;;;;;;;6.20;5.65;;;;;;;18.37;52.75;97319.25;6276630;22;20016;-77
2022/05/08 10:25:15;;;;;;;6.00;5.30;;;;;;;18.42;52.68;97314.13;6276204;22;20024;-77
2022/05/08 10:28:05;;;;;;;5.38;4.82;;;;;;;18.46;52.06;97304.75;6275721;22;20368;-77
2022/05/08 10:30:34;;;;;;;6.05;4.90;;;;;;;18.50;52.31;97303.28;6277178;22;20023;-77
2022/05/08 10:33:01;;;;;;;5.43;4.93;;;;;;;18.54;51.95;97306.31;6276248;22;20015;-77
2022/05/08 10:35:31;;;;;;;5.68;5.07;;;;;;;18.59;52.01;97309.13;6276390;22;20022;-77
2022/05/08 10:38:22;;;;;;;5.22;4.72;;;;;;;18.64;51.11;97304.00;6275801;22;20052;-77
2022/05/08 10:40:50;;;;;;;6.38;5.78;;;;;;;18.69;51.79;97304.19;6276514;22;20020;-77
2022/05/08 10:43:40;;;;;;;9.63;5.45;;;;;;;18.74;51.28;97300.88;6284567;22;20016;-78
2022/05/08 10:46:23;;;;;;;6.40;5.13;;;;;;;18.79;51.19;97306.34;6294294;22;20071;-77
2022/05/08 10:48:54;;;;;;;5.80;5.20;;;;;;;18.81;50.56;97314.88;6294801;22;20031;-77
2022/05/08 10:51:23;;;;;;;6.45;5.13;;;;;;;18.84;50.39;97308.34;6293894;22;20023;-77
2022/05/08 10:53:51;;;;;;;6.47;5.88;;;;;;;18.88;49.89;97310.31;6279526;22;20094;-77
2022/05/08 11:14:42;;;;;;;6.20;5.60;;;;;;;18.96;49.42;97306.59;6272949;23;20019;-79
2022/05/08 11:17:32;;;;;;;7.93;6.18;;;;;;;18.97;49.75;97305.56;6272918;22;20023;-79
2022/05/08 11:20:18;;;;;;;7.22;5.45;;;;;;;19.02;50.05;97302.28;6273334;23;20052;-79
2022/05/08 11:22:57;;;;;;;6.00;5.45;;;;;;;19.04;49.51;97313.44;6273067;23;20007;-79
2022/05/08 11:25:43;;;;;;;5.68;5.18;;;;;;;19.06;50.05;97301.63;6272467;22;20048;-79
2022/05/08 11:28:33;;;;;;;5.95;5.43;;;;;;;19.08;49.59;97307.50;6273511;23;20059;-79
2022/05/08 11:31:20;;;;;;;5.53;5.00;;;;;;;19.11;49.43;97311.53;6262367;22;20034;-78
2022/05/08 11:55:32;;;;;;;6.70;4.95;;;;;;;19.07;50.21;97313.81;6267994;22;20039;-79
2022/05/08 11:58:03;;;;;;;5.78;5.13;;;;;;;19.09;50.12;97303.03;6273015;22;20008;-78
2022/05/08 12:00:44;;;;;;;5.18;4.68;;;;;;;19.12;49.56;97302.59;6247555;23;20016;-79
2022/05/08 12:03:32;;;;;;;10.48;5.25;;;;;;;19.16;49.49;97313.53;6273337;22;20083;-79
2022/05/08 12:06:19;;;;;;;;;;;;;;;19.19;50.33;97313.91;6279723;22;20007;-78
2022/05/08 12:11:44;;;;;;;6.30;5.15;;;;;;;19.16;50.09;97311.69;6303497;22;20035;-79
2022/05/08 12:14:21;;;;;;;8.50;5.07;;;;;;;19.14;49.97;97305.81;6277722;22;20016;-78
2022/05/08 12:17:03;;;;;;;5.47;4.97;;;;;;;19.13;50.10;97306.84;6277014;22;20010;-79
2022/05/08 12:19:52;;;;;;;5.43;4.95;;;;;;;19.11;50.46;97315.00;6303547;22;20019;-79
2022/05/08 12:22:31;;;;;;;5.13;4.63;;;;;;;19.06;50.07;97301.63;6303744;22;20019;-78
2022/05/08 12:25:04;;;;;;;5.38;4.88;;;;;;;19.04;50.16;97310.78;6303288;22;20075;-78
2022/05/08 12:27:45;;;;;;;6.80;5.18;;;;;;;19.02;50.09;97307.56;6303735;22;20004;-79
2022/05/08 12:30:18;;;;;;;6.07;4.82;;;;;;;19.02;50.33;97308.38;6303999;22;20067;-79
2022/05/08 12:32:59;;;;;;;6.25;5.38;;;;;;;19.03;50.05;97309.19;6304621;22;20031;-79
2022/05/08 12:38:20;;;;;;;6.10;4.57;;;;;;;19.06;49.85;97300.81;6262057;22;19996;-78
2022/05/08 12:41:13;;;;;;;5.93;4.75;;;;;;;19.06;50.51;97301.63;6303792;22;20012;-79
2022/05/08 12:43:51;;;;;;;8.73;5.18;;;;;;;19.07;49.69;97307.72;6303770;22;20020;-79
2022/05/08 12:46:36;;;;;;;6.47;4.75;;;;;;;19.05;49.03;97301.84;6278838;22;20004;-79
2022/05/08 12:49:13;;;;;;;5.90;4.28;;;;;;;19.03;49.02;97293.31;6304010;22;20023;-79
2022/05/08 12:51:47;;;;;;;4.35;4.00;;;;;;;19.03;48.97;97298.63;6302589;22;20026;-78
2022/05/08 12:54:23;;;;;;;4.60;4.03;;;;;;;19.00;48.13;97302.50;6303885;22;20020;-79
2022/05/08 12:59:56;;;;;;;4.85;3.85;;;;;;;19.00;47.71;97299.03;6284863;22;20011;-80
2022/05/08 13:10:07;;;;;;;4.95;4.05;;;;;;;19.05;47.75;97291.28;6232641;22;20021;-79
2022/05/08 13:12:47;;;;;;;4.25;3.75;;;;;;;19.06;48.04;97291.03;6244033;22;20013;-79
2022/05/08 13:15:28;;;;;;;6.55;5.05;;;;;;;19.07;47.57;97287.38;6218924;23;20009;-79
2022/05/08 13:18:14;;;;;;;4.88;3.60;;;;;;;19.12;47.04;97286.72;6244092;22;20027;-79
2022/05/08 13:20:51;;;;;;;5.40;3.30;;;;;;;19.14;47.07;97274.88;6243778;23;20036;-78
2022/05/08 13:23:28;;;;;;;5.20;3.58;;;;;;;19.18;46.58;97279.75;6244165;23;20048;-78
2022/05/08 13:29:03;;;;;;;3.50;3.20;;;;;;;19.22;46.20;97271.16;6243972;22;20031;-79
2022/05/08 13:31:48;;;;;;;5.90;4.20;;;;;;;19.26;45.43;97261.75;6244239;23;20159;-77
2022/05/08 13:34:20;;;;;;;4.15;3.60;;;;;;;19.26;45.67;97261.75;6244048;22;20023;-79
2022/05/08 13:39:40;;;;;;;5.95;3.90;;;;;;;19.29;45.58;97263.94;6244611;22;19999;-79
2022/05/08 13:47:47;;;;;;;3.60;3.30;;;;;;;19.41;46.08;97261.34;6274368;22;20015;-82
2022/05/08 13:50:26;;;;;;;5.85;3.45;;;;;;;19.45;46.41;97259.09;6249567;23;20027;-78
2022/05/08 13:52:59;;;;;;;5.78;3.00;;;;;;;19.47;45.33;97257.03;6248608;23;20003;-79
2022/05/08 13:55:44;;;;;;;3.15;2.88;;;;;;;19.49;44.80;97250.47;6274579;22;20075;-79
2022/05/08 13:58:31;;;;;;;4.05;2.70;;;;;;;19.51;44.25;97253.72;6274141;22;20032;-79
2022/05/08 14:01:24;;;;;;;2.50;2.30;;;;;;;19.51;42.72;97260.84;6251798;23;20028;-80
2022/05/08 14:04:11;;;;;;;4.07;2.90;;;;;;;19.50;41.68;97256.56;6248265;23;20456;-79
2022/05/08 14:09:33;;;;;;;3.15;2.83;;;;;;;19.50;43.24;97261.88;6274609;23;20024;-78
2022/05/08 14:12:12;;;;;;;4.35;3.13;;;;;;;19.51;42.93;97259.00;6273285;23;20011;-79
2022/05/08 14:17:37;;;;;;;3.90;2.97;;;;;;;19.57;43.46;97257.31;6298109;22;20012;-79
2022/05/08 14:20:27;;;;;;;4.07;2.63;;;;;;;19.57;43.03;97246.75;6303415;22;20019;-78
2022/05/08 14:23:13;;;;;;;4.72;2.90;;;;;;;19.58;43.11;97245.69;6304692;22;20035;-79
2022/05/08 14:25:59;;;;;;;2.88;2.67;;;;;;;19.58;42.46;97237.75;6305103;22;20019;-79
2022/05/08 14:37:31;;;;;;;5.35;2.90;;;;;;;19.59;43.82;97244.69;6304852;22;20020;-79
2022/05/08 14:45:46;;;;;;;3.30;2.80;;;;;;;19.64;43.74;97228.94;6302647;22;20020;-78
2022/05/08 14:48:29;;;;;;;3.88;2.97;;;;;;;19.64;43.98;97236.06;6305343;22;20034;-79
2022/05/08 14:51:11;;;;;;;3.38;3.08;;;;;;;19.63;43.64;97231.78;6305780;22;20026;-80
2022/05/08 14:53:48;;;;;;;3.40;3.10;;;;;;;19.62;43.45;97231.00;6305024;22;20021;-79
2022/05/08 14:56:43;;;;;;;3.83;3.00;;;;;;;19.64;43.46;97225.47;6302171;22;20019;-78
2022/05/08 14:59:21;;;;;;;3.28;2.85;;;;;;;19.64;43.90;97231.56;6279875;22;20060;-79
2022/05/08 15:01:53;;;;;;;3.90;3.45;;;;;;;19.66;44.15;97229.50;6304608;22;20000;-79
2022/05/08 15:04:28;;;;;;;3.15;2.95;;;;;;;19.67;43.62;97231.13;6304425;22;20011;-78
2022/05/08 15:07:14;;;;;;;2.80;2.60;;;;;;;19.66;43.82;97234.00;6304346;22;20055;-78
2022/05/08 15:12:40;;;;;;;3.72;3.30;;;;;;;19.67;43.69;97239.06;6304411;22;20020;-79
2022/05/08 15:15:23;;;;;;;3.55;2.33;;;;;;;19.65;42.49;97221.78;6257581;22;20024;-79
2022/05/08 15:21:14;;;;;;;3.65;2.70;;;;;;;19.61;42.19;97232.00;6304853;22;20029;-80
2022/05/08 15:23:55;;;;;;;5.40;3.08;;;;;;;19.58;42.29;97231.66;6304584;22;20010;-79
2022/05/08 15:26:29;;;;;;;4.22;2.67;;;;;;;19.54;41.85;97232.09;6277978;22;20023;-79
2022/05/08 15:29:09;;;;;;;4.93;2.70;;;;;;;19.52;42.44;97236.00;6279178;22;20023;-78
2022/05/08 15:31:44;;;;;;;2.70;2.50;;;;;;;19.51;43.41;97227.25;6304264;22;20015;-78
2022/05/08 15:34:21;;;;;;;4.00;3.05;;;;;;;19.51;43.36;97229.91;6278449;22;20047;-80
2022/05/08 15:37:05;;;;;;;3.38;3.08;;;;;;;19.53;44.38;97227.03;6305076;22;20008;-79
2022/05/08 15:39:45;;;;;;;4.57;3.83;;;;;;;19.56;45.03;97234.53;6304148;22;20016;-80
2022/05/08 15:45:13;;;;;;;4.28;3.40;;;;;;;19.52;45.56;97230.69;6303732;22;20067;-79
2022/05/08 15:47:49;;;;;;;5.70;3.20;;;;;;;19.51;45.79;97226.47;6278565;22;20022;-80
2022/05/08 15:50:27;;;;;;;3.78;3.42;;;;;;;19.50;46.21;97230.13;6304430;22;20012;-79
2022/05/08 15:53:14;;;;;;;3.15;2.85;;;;;;;19.50;46.84;97230.13;6304143;22;20016;-78
2022/05/08 15:55:52;;;;;;;3.95;3.65;;;;;;;19.48;47.09;97234.81;6303871;22;20053;-81
2022/05/08 15:58:43;;;;;;;3.88;3.58;;;;;;;19.46;47.34;97235.06;6304541;22;20020;-79
2022/05/08 16:01:37;;;;;;;5.18;4.68;;;;;;;19.43;47.23;97229.41;6304253;22;20003;-77
2022/05/08 16:04:26;;;;;;;4.30;3.60;;;;;;;19.41;47.27;97237.56;6280525;22;20043;-78
2022/05/08 16:07:00;;;;;;;3.45;3.08;;;;;;;19.41;47.61;97236.75;6303530;22;20042;-79
2022/05/08 16:09:39;;;;;;;5.35;3.75;;;;;;;19.40;47.91;97240.44;6278249;22;20010;-79
2022/05/08 16:12:23;;;;;;;3.40;3.10;;;;;;;19.39;47.76;97241.44;6298847;22;20012;-79
2022/05/08 16:23:45;;;;;;;3.45;3.15;;;;;;;19.32;47.85;97239.69;6303768;22;20003;-77
2022/05/08 16:26:41;;;;;;;5.18;3.72;;;;;;;19.29;47.84;97242.00;6303256;22;20059;-78
2022/05/08 16:29:28;;;;;;;3.65;3.17;;;;;;;19.26;48.04;97240.59;6304379;22;20012;-78
2022/05/08 16:32:25;;;;;;;4.88;3.65;;;;;;;19.24;49.00;97241.81;6304625;22;20004;-82
2022/05/08 16:34:59;;;;;;;3.80;3.50;;;;;;;19.20;48.61;97238.84;6304403;22;20023;-80
2022/05/08 16:40:18;;;;;;;3.78;3.47;;;;;;;19.19;49.02;97239.03;6302524;22;20023;-79
2022/05/08 16:42:56;;;;;;;6.65;4.05;;;;;;;19.19;49.52;97244.34;6303754;22;20012;-79
2022/05/08 16:45:27;;;;;;;9.50;4.30;;;;;;;19.18;49.29;97243.53;6303613;22;20020;-79
2022/05/08 16:48:04;;;;;;;4.28;3.88;;;;;;;19.16;49.47;97239.50;6305766;22;20000;-79
2022/05/08 16:50:38;;;;;;;3.85;3.50;;;;;;;19.14;49.48;97226.50;6306332;22;20020;-78
2022/05/08 16:55:58;;;;;;;7.18;3.58;;;;;;;19.11;49.82;97238.31;6301634;22;20031;-77
2022/05/08 16:58:26;;;;;;;4.07;3.75;;;;;;;19.09;49.92;97234.28;6293061;22;20107;-78
2022/05/08 17:00:55;;;;;;;6.28;4.22;;;;;;;19.08;49.92;97235.28;6292087;22;20019;-76
2022/05/08 17:03:24;;;;;;;4.40;4.00;;;;;;;19.06;50.21;97240.78;6296769;22;20031;-77
2022/05/08 17:05:52;;;;;;;5.57;4.38;;;;;;;19.05;50.47;97243.69;6295198;22;20039;-77
2022/05/08 17:08:19;;;;;;;4.60;4.20;;;;;;;19.03;50.47;97237.81;6295032;22;20071;-77
2022/05/08 17:10:47;;;;;;;4.10;3.70;;;;;;;19.02;50.65;97234.34;6294124;22;20043;-77
2022/05/08 17:13:14;;;;;;;4.60;4.20;;;;;;;19.01;50.89;97239.84;6295493;22;20059;-77
2022/05/08 17:15:44;;;;;;;4.03;3.72;;;;;;;19.00;51.12;97240.88;6294577;22;20026;-77
2022/05/08 17:18:12;;;;;;;5.78;4.30;;;;;;;18.98;51.16;97237.63;6294573;22;20016;-77
2022/05/08 17:20:41;;;;;;;4.40;4.00;;;;;;;18.96;51.29;97243.16;6285812;22;20027;-78
2022/05/08 17:23:08;;;;;;;5.95;4.88;;;;;;;18.94;51.35;97238.09;6279625;22;20024;-77
2022/05/08 17:25:37;;;;;;;5.30;4.43;;;;;;;18.91;51.63;97241.19;6278237;22;20020;-77
2022/05/08 17:30:50;;;;;;;5.13;4.10;;;;;;;18.87;51.95;97245.28;6277466;22;20024;-77
2022/05/08 17:33:18;;;;;;;6.10;4.60;;;;;;;18.84;52.13;97243.06;6276676;22;20023;-78
2022/05/08 17:35:47;;;;;;;4.78;4.38;;;;;;;18.82;52.15;97249.59;6276411;22;20019;-77
2022/05/08 17:38:15;;;;;;;4.95;4.55;;;;;;;18.81;52.25;97248.78;6277539;22;20026;-77
2022/05/08 17:40:44;;;;;;;5.40;4.30;;;;;;;18.78;52.08;97243.91;6277354;22;20023;-77
2022/05/08 17:43:12;;;;;;;8.75;4.82;;;;;;;18.74;51.96;97246.19;6277798;22;20019;-77
2022/05/08 17:45:40;;;;;;;6.43;4.43;;;;;;;18.73;52.30;97254.31;6280951;22;20022;-78
2022/05/08 17:48:08;;;;;;;5.72;4.80;;;;;;;18.71;52.37;97249.25;6296381;22;20053;-77
2022/05/08 17:50:38;;;;;;;5.88;5.38;;;;;;;18.70;52.29;97252.13;6295971;22;20059;-77
2022/05/08 17:53:07;;;;;;;6.32;4.47;;;;;;;18.68;52.39;97262.09;6297172;22;20151;-77
2022/05/08 17:55:35;;;;;;;5.43;4.90;;;;;;;18.66;52.61;97256.22;6277445;22;20024;-77
2022/05/08 17:58:03;;;;;;;5.15;4.32;;;;;;;18.63;52.73;97256.63;6276576;22;20020;-77
2022/05/08 18:00:30;;;;;;;5.07;4.30;;;;;;;18.59;53.21;97260.75;6277504;22;20019;-77
2022/05/08 18:05:58;;;;;;;6.63;4.50;;;;;;;18.52;52.68;97258.97;6276457;22;20491;-77
2022/05/08 18:08:29;;;;;;;5.60;5.07;;;;;;;18.49;53.36;97263.88;6276840;22;20030;-77
2022/05/08 18:10:59;;;;;;;5.63;4.82;;;;;;;18.46;53.00;97270.41;6276698;22;20026;-77
2022/05/08 18:13:27;;;;;;;6.75;4.78;;;;;;;18.43;53.19;97267.38;6277155;22;20028;-77
2022/05/08 18:15:56;;;;;;;6.65;4.40;;;;;;;18.42;53.23;97271.84;6275193;22;20547;-77
2022/05/08 18:18:24;;;;;;;5.88;5.38;;;;;;;18.40;53.43;97268.63;6277320;22;20339;-77
2022/05/08 18:20:52;;;;;;;5.75;4.93;;;;;;;18.39;53.78;97279.38;6276193;22;20081;-77
2022/05/08 18:23:19;;;;;;;6.93;5.07;;;;;;;18.38;53.77;97275.16;6277568;22;20026;-76
2022/05/08 18:25:49;;;;;;;4.82;4.43;;;;;;;18.35;53.94;97276.38;6275774;22;20016;-76
2022/05/08 18:28:17;;;;;;;5.68;5.10;;;;;;;18.34;54.17;97274.75;6277626;22;20074;-77
2022/05/08 18:30:46;;;;;;;14.48;5.32;;;;;;;18.30;54.22;97278.84;6276784;22;20031;-77
2022/05/08 18:33:13;;;;;;;5.85;4.60;;;;;;;18.25;54.25;97279.47;6276456;22;20538;-76
2022/05/08 18:35:41;;;;;;;4.88;4.47;;;;;;;18.21;54.54;97274.84;6276516;22;20019;-76
2022/05/08 18:38:09;;;;;;;6.28;5.38;;;;;;;18.18;54.74;97291.13;6275467;22;20016;-77
2022/05/08 18:40:38;;;;;;;5.57;5.00;;;;;;;18.12;55.12;97287.50;6276760;22;20020;-77
2022/05/08 18:43:10;;;;;;;6.18;5.57;;;;;;;18.07;55.34;97285.50;6276033;22;20069;-76
2022/05/08 18:45:37;;;;;;;6.55;5.95;;;;;;;18.01;55.52;97283.69;6276467;22;20026;-76
2022/05/08 18:48:06;;;;;;;6.50;5.72;;;;;;;17.95;56.22;97292.50;6275730;22;20069;-77
2022/05/08 18:50:34;;;;;;;8.68;7.78;;;;;;;17.89;56.52;97288.06;6249799;22;20498;-77
2022/05/08 18:53:03;;;;;;;8.15;7.35;;;;;;;17.80;56.95;97291.91;6277030;22;20603;-76
2022/05/08 18:55:30;;;;;;;7.57;6.78;;;;;;;17.71;56.96;97286.88;6281539;22;20016;-76
2022/05/08 18:57:58;;;;;;;6.68;5.97;;;;;;;17.66;57.08;97289.31;6276506;22;20020;-77